createdAt,value
2018-02-22T00:00:01.547Z,73.47
2018-02-22T00:01:01.537Z,73.66
2018-02-22T00:02:01.520Z,74.32
2018-02-22T00:03:01.495Z,73.66
2018-02-22T00:04:01.479Z,73.94
2018-02-22T00:05:01.461Z,75.26
2018-02-22T00:06:01.448Z,73.66
2018-02-22T00:07:01.430Z,72.90
2018-02-22T00:08:01.405Z,73.66
2018-02-22T00:09:01.390Z,73.56
2018-02-22T00:10:01.379Z,73.47
2018-02-22T00:11:01.352Z,73.37
2018-02-22T00:12:01.336Z,73.47
2018-02-22T00:13:01.317Z,73.37
2018-02-22T00:14:01.299Z,73.66
2018-02-22T00:15:01.282Z,74.22
2018-02-22T00:16:01.269Z,73.85
2018-02-22T00:17:01.252Z,73.47
2018-02-22T00:18:01.227Z,73.85
2018-02-22T00:19:01.208Z,73.75
2018-02-22T00:20:01.193Z,74.41
2018-02-22T00:21:01.183Z,73.94
2018-02-22T00:22:01.157Z,73.94
2018-02-22T00:23:01.143Z,74.04
2018-02-22T00:24:01.120Z,74.22
2018-02-22T00:25:01.102Z,74.88
2018-02-22T00:26:01.086Z,76.68
2018-02-22T00:27:01.068Z,75.45
2018-02-22T00:28:01.047Z,74.04
2018-02-22T00:29:01.030Z,73.85
2018-02-22T00:30:01.016Z,76.87
2018-02-22T00:31:00.993Z,75.64
2018-02-22T00:32:01.014Z,74.79
2018-02-22T00:33:00.964Z,74.22
2018-02-22T00:34:00.946Z,73.85
2018-02-22T00:35:00.922Z,74.51
2018-02-22T00:36:00.903Z,74.41
2018-02-22T00:37:00.893Z,73.75
2018-02-22T00:38:00.870Z,74.32
2018-02-22T00:39:00.852Z,74.41
2018-02-22T00:40:00.832Z,74.32
2018-02-22T00:41:00.816Z,75.26
2018-02-22T00:42:00.803Z,74.69
2018-02-22T00:43:00.778Z,74.79
2018-02-22T00:44:00.760Z,75.36
2018-02-22T00:45:00.748Z,74.69
2018-02-22T00:46:00.723Z,75.36
2018-02-22T00:47:00.707Z,76.87
2018-02-22T00:48:00.688Z,75.83
2018-02-22T00:49:00.671Z,74.88
2018-02-22T00:50:00.653Z,74.88
2018-02-22T00:51:00.639Z,74.51
2018-02-22T00:52:00.625Z,75.93
2018-02-22T00:53:00.602Z,75.45
2018-02-22T00:54:00.581Z,75.45
2018-02-22T00:55:00.566Z,75.07
2018-02-22T00:56:00.549Z,75.26
2018-02-22T00:57:00.526Z,76.68
2018-02-22T00:58:00.509Z,74.98
2018-02-22T00:59:00.493Z,75.07
2018-02-22T01:00:00.472Z,74.98
2018-02-22T01:01:00.455Z,75.74
2018-02-22T01:02:00.435Z,75.55
2018-02-22T01:03:00.423Z,75.26
2018-02-22T01:04:00.400Z,75.74
2018-02-22T01:05:00.384Z,76.40
2018-02-22T01:06:00.365Z,75.64
2018-02-22T01:07:00.347Z,75.64
2018-02-22T01:08:00.331Z,75.36
2018-02-22T01:09:00.314Z,74.88
2018-02-22T01:10:00.295Z,74.98
2018-02-22T01:11:00.275Z,75.55
2018-02-22T01:12:00.260Z,80.37
2018-02-22T01:13:00.241Z,77.82
2018-02-22T01:14:00.221Z,77.25
2018-02-22T01:15:00.206Z,77.25
2018-02-22T01:16:00.187Z,75.64
2018-02-22T01:17:00.168Z,75.26
2018-02-22T01:18:00.151Z,74.79
2018-02-22T01:19:00.132Z,74.98
2018-02-22T01:20:00.120Z,74.69
2018-02-22T01:21:00.096Z,74.79
2018-02-22T01:22:00.080Z,74.69
2018-02-22T01:23:00.067Z,75.55
2018-02-22T01:24:00.046Z,74.79
2018-02-22T01:25:00.028Z,75.64
2018-02-22T01:26:00.009Z,75.26
2018-02-22T01:26:59.989Z,75.74
2018-02-22T01:27:59.972Z,75.64
2018-02-22T01:28:59.959Z,75.74
2018-02-22T01:29:59.936Z,76.87
2018-02-22T01:30:59.916Z,75.83
2018-02-22T01:31:59.901Z,75.36
2018-02-22T01:32:59.882Z,75.45
2018-02-22T01:33:59.863Z,77.53
2018-02-22T01:34:59.844Z,79.05
2018-02-22T01:35:59.828Z,77.34
2018-02-22T01:36:59.809Z,76.31
2018-02-22T01:37:59.797Z,75.74
2018-02-22T01:38:59.780Z,76.40
2018-02-22T01:39:59.754Z,76.12
2018-02-22T01:40:59.736Z,75.74
2018-02-22T01:41:59.731Z,76.12
2018-02-22T01:42:59.701Z,76.50
2018-02-22T01:43:59.683Z,76.31
2018-02-22T01:44:59.664Z,77.34
2018-02-22T01:45:59.647Z,77.53
2018-02-22T01:46:59.633Z,76.97
2018-02-22T01:47:59.610Z,76.31
2018-02-22T01:48:59.591Z,76.40
2018-02-22T01:49:59.573Z,78.58
2018-02-22T01:50:59.554Z,77.63
2018-02-22T01:51:59.538Z,76.97
2018-02-22T01:52:59.523Z,77.87
2018-02-22T01:53:59.503Z,78.10
2018-02-22T01:54:59.481Z,77.53
2018-02-22T01:55:59.469Z,77.34
2018-02-22T01:56:59.445Z,77.31
2018-02-22T01:57:59.428Z,77.87
2018-02-22T01:58:59.408Z,77.21
2018-02-22T01:59:59.390Z,77.50
2018-02-22T02:00:59.378Z,77.87
2018-02-22T02:01:59.356Z,77.50
2018-02-22T02:02:59.337Z,77.12
2018-02-22T02:03:59.318Z,77.87
2018-02-22T02:04:59.298Z,79.10
2018-02-22T02:05:59.281Z,78.44
2018-02-22T02:06:59.264Z,77.97
2018-02-22T02:07:59.241Z,77.97
2018-02-22T02:08:59.226Z,78.16
2018-02-22T02:09:59.206Z,77.87
2018-02-22T02:10:59.189Z,77.78
2018-02-22T02:11:59.168Z,77.69
2018-02-22T02:12:59.151Z,79.19
2018-02-22T02:13:59.134Z,78.53
2018-02-22T02:14:59.114Z,78.06
2018-02-22T02:15:59.096Z,77.59
2018-02-22T02:16:59.077Z,77.40
2018-02-22T02:17:59.060Z,77.31
2018-02-22T02:18:59.047Z,77.87
2018-02-22T02:19:59.028Z,78.06
2018-02-22T02:20:59.005Z,77.78
2018-02-22T02:21:58.988Z,78.53
2018-02-22T02:22:58.967Z,77.97
2018-02-22T02:23:58.950Z,77.78
2018-02-22T02:24:58.937Z,78.72
2018-02-22T02:25:58.912Z,78.25
2018-02-22T02:26:58.899Z,79.10
2018-02-22T02:27:58.874Z,78.53
2018-02-22T02:28:58.857Z,77.78
2018-02-22T02:29:58.837Z,78.16
2018-02-22T02:30:58.823Z,77.78
2018-02-22T02:31:58.810Z,77.78
2018-02-22T02:32:58.786Z,77.69
2018-02-22T02:33:58.765Z,77.87
2018-02-22T02:34:58.748Z,78.53
2018-02-22T02:35:58.735Z,78.72
2018-02-22T02:36:58.719Z,78.53
2018-02-22T02:37:58.689Z,78.34
2018-02-22T02:38:58.677Z,77.97
2018-02-22T02:39:58.649Z,77.87
2018-02-22T02:40:58.644Z,77.78
2018-02-22T02:41:58.622Z,78.25
2018-02-22T02:42:58.599Z,78.25
2018-02-22T02:43:58.577Z,79.29
2018-02-22T02:44:58.560Z,78.53
2018-02-22T02:45:58.541Z,78.63
2018-02-22T02:46:58.518Z,78.34
2018-02-22T02:47:58.500Z,78.44
2018-02-22T02:48:58.482Z,78.91
2018-02-22T02:49:58.464Z,79.29
2018-02-22T02:50:58.446Z,79.29
2018-02-22T02:51:58.431Z,79.67
2018-02-22T02:52:58.414Z,77.69
2018-02-22T02:53:58.395Z,77.87
2018-02-22T02:54:58.371Z,77.97
2018-02-22T02:55:58.357Z,77.97
2018-02-22T02:56:58.335Z,77.69
2018-02-22T02:57:58.314Z,77.97
2018-02-22T02:58:58.294Z,78.53
2018-02-22T02:59:58.277Z,78.44
2018-02-22T03:00:58.257Z,78.72
2018-02-22T03:01:58.240Z,78.16
2018-02-22T03:02:58.232Z,77.87
2018-02-22T03:03:58.202Z,78.44
2018-02-22T03:04:58.189Z,78.53
2018-02-22T03:05:58.167Z,78.53
2018-02-22T03:06:58.147Z,78.25
2018-02-22T03:07:58.127Z,79.10
2018-02-22T03:08:58.112Z,78.44
2018-02-22T03:09:58.091Z,77.69
2018-02-22T03:10:58.070Z,78.44
2018-02-22T03:11:58.051Z,78.72
2018-02-22T03:12:58.033Z,79.19
2018-02-22T03:13:58.021Z,78.25
2018-02-22T03:14:58.000Z,78.25
2018-02-22T03:15:57.978Z,82.12
2018-02-22T03:16:57.958Z,81.84
2018-02-22T03:17:57.941Z,80.43
2018-02-22T03:18:57.921Z,78.44
2018-02-22T03:19:57.901Z,78.53
2018-02-22T03:20:57.890Z,79.19
2018-02-22T03:21:57.865Z,79.19
2018-02-22T03:22:57.854Z,78.63
2018-02-22T03:23:57.830Z,77.78
2018-02-22T03:24:57.815Z,77.78
2018-02-22T03:25:57.790Z,77.87
2018-02-22T03:26:57.773Z,77.78
2018-02-22T03:27:57.763Z,78.25
2018-02-22T03:28:57.734Z,79.10
2018-02-22T03:29:57.719Z,79.10
2018-02-22T03:30:57.696Z,78.91
2018-02-22T03:31:57.695Z,78.63
2018-02-22T03:32:57.665Z,78.16
2018-02-22T03:33:57.640Z,78.16
2018-02-22T03:34:57.628Z,78.25
2018-02-22T03:35:57.604Z,78.53
2018-02-22T03:36:57.589Z,77.97
2018-02-22T03:37:57.575Z,79.48
2018-02-22T03:38:57.548Z,79.19
2018-02-22T03:39:57.529Z,78.63
2018-02-22T03:40:57.510Z,77.78
2018-02-22T03:41:57.497Z,77.78
2018-02-22T03:42:57.470Z,78.25
2018-02-22T03:43:57.454Z,77.78
2018-02-22T03:44:57.441Z,77.78
2018-02-22T03:45:57.420Z,78.44
2018-02-22T03:46:57.401Z,78.44
2018-02-22T03:47:57.386Z,78.53
2018-02-22T03:48:57.364Z,79.57
2018-02-22T03:49:57.341Z,80.14
2018-02-22T03:50:57.323Z,78.44
2018-02-22T03:51:57.307Z,77.78
2018-02-22T03:52:57.291Z,77.50
2018-02-22T03:53:57.283Z,77.50
2018-02-22T03:54:57.247Z,77.50
2018-02-22T03:55:57.228Z,78.53
2018-02-22T03:56:57.210Z,79.48
2018-02-22T03:57:57.193Z,79.86
2018-02-22T03:58:57.171Z,78.44
2018-02-22T03:59:57.160Z,77.78
2018-02-22T04:00:57.137Z,78.06
2018-02-22T04:01:57.116Z,77.31
2018-02-22T04:02:57.098Z,77.31
2018-02-22T04:03:57.087Z,77.69
2018-02-22T04:04:57.066Z,79.67
2018-02-22T04:05:57.044Z,80.90
2018-02-22T04:06:57.029Z,80.71
2018-02-22T04:07:57.006Z,77.59
2018-02-22T04:08:56.985Z,77.12
2018-02-22T04:09:56.968Z,77.40
2018-02-22T04:10:56.949Z,78.25
2018-02-22T04:11:56.930Z,77.50
2018-02-22T04:12:56.921Z,78.91
2018-02-22T04:13:56.899Z,77.59
2018-02-22T04:14:56.872Z,76.74
2018-02-22T04:15:56.856Z,77.21
2018-02-22T04:16:56.836Z,76.83
2018-02-22T04:17:56.821Z,76.83
2018-02-22T04:18:56.806Z,76.64
2018-02-22T04:19:56.782Z,77.02
2018-02-22T04:20:56.763Z,79.19
2018-02-22T04:21:56.750Z,77.97
2018-02-22T04:22:56.727Z,77.31
2018-02-22T04:23:56.711Z,77.50
2018-02-22T04:24:56.689Z,77.21
2018-02-22T04:25:56.670Z,77.02
2018-02-22T04:26:56.648Z,76.93
2018-02-22T04:27:56.631Z,77.02
2018-02-22T04:28:56.613Z,77.78
2018-02-22T04:29:56.594Z,78.72
2018-02-22T04:30:56.582Z,78.91
2018-02-22T04:31:56.563Z,77.50
2018-02-22T04:32:56.539Z,77.31
2018-02-22T04:33:56.520Z,76.93
2018-02-22T04:34:56.503Z,77.31
2018-02-22T04:35:56.488Z,76.93
2018-02-22T04:36:56.472Z,77.21
2018-02-22T04:37:56.446Z,77.02
2018-02-22T04:38:56.433Z,76.74
2018-02-22T04:39:56.409Z,78.25
2018-02-22T04:40:56.399Z,77.69
2018-02-22T04:41:56.375Z,77.12
2018-02-22T04:42:56.361Z,77.21
2018-02-22T04:43:56.333Z,77.02
2018-02-22T04:44:56.317Z,76.45
2018-02-22T04:45:56.300Z,76.64
2018-02-22T04:46:56.278Z,77.31
2018-02-22T04:47:56.257Z,76.55
2018-02-22T04:48:56.241Z,77.59
2018-02-22T04:49:56.227Z,81.09
2018-02-22T04:50:56.203Z,77.87
2018-02-22T04:51:56.192Z,77.40
2018-02-22T04:52:56.166Z,76.55
2018-02-22T04:53:56.148Z,77.59
2018-02-22T04:54:56.134Z,77.31
2018-02-22T04:55:56.118Z,76.36
2018-02-22T04:56:56.098Z,76.36
2018-02-22T04:57:56.073Z,77.02
2018-02-22T04:58:56.057Z,76.55
2018-02-22T04:59:56.039Z,76.64
2018-02-22T05:00:56.016Z,76.26
2018-02-22T05:01:55.997Z,79.86
2018-02-22T05:02:55.985Z,78.06
2018-02-22T05:03:55.959Z,79.48
2018-02-22T05:04:55.942Z,78.44
2018-02-22T05:05:55.931Z,76.55
2018-02-22T05:06:55.905Z,76.93
2018-02-22T05:07:55.885Z,77.21
2018-02-22T05:08:55.876Z,76.74
2018-02-22T05:09:55.851Z,77.40
2018-02-22T05:10:55.829Z,77.21
2018-02-22T05:11:55.810Z,76.45
2018-02-22T05:12:55.798Z,76.07
2018-02-22T05:13:55.774Z,75.60
2018-02-22T05:14:55.754Z,75.98
2018-02-22T05:15:55.740Z,77.21
2018-02-22T05:16:55.722Z,76.83
2018-02-22T05:17:55.706Z,76.36
2018-02-22T05:18:55.680Z,75.70
2018-02-22T05:19:55.676Z,75.79
2018-02-22T05:20:55.652Z,76.26
2018-02-22T05:21:55.625Z,76.36
2018-02-22T05:22:55.605Z,75.98
2018-02-22T05:23:55.592Z,76.17
2018-02-22T05:24:55.569Z,76.74
2018-02-22T05:25:55.552Z,77.40
2018-02-22T05:26:55.534Z,76.36
2018-02-22T05:27:55.516Z,76.36
2018-02-22T05:28:55.499Z,75.51
2018-02-22T05:29:55.479Z,76.07
2018-02-22T05:30:55.459Z,77.40
2018-02-22T05:31:55.434Z,76.74
2018-02-22T05:32:55.421Z,76.64
2018-02-22T05:33:55.398Z,77.69
2018-02-22T05:34:55.384Z,76.55
2018-02-22T05:35:55.366Z,77.31
2018-02-22T05:36:55.391Z,77.97
2018-02-22T05:37:55.323Z,77.97
2018-02-22T05:38:55.306Z,77.02
2018-02-22T05:39:55.284Z,77.12
2018-02-22T05:40:55.266Z,76.36
2018-02-22T05:41:55.248Z,75.98
2018-02-22T05:42:55.227Z,77.21
2018-02-22T05:43:55.215Z,76.74
2018-02-22T05:44:55.190Z,76.17
2018-02-22T05:45:55.183Z,76.36
2018-02-22T05:46:55.154Z,75.70
2018-02-22T05:47:55.145Z,76.74
2018-02-22T05:48:55.122Z,77.59
2018-02-22T05:49:55.097Z,76.83
2018-02-22T05:50:55.078Z,78.16
2018-02-22T05:51:55.058Z,76.93
2018-02-22T05:52:55.044Z,76.83
2018-02-22T05:53:55.027Z,76.17
2018-02-22T05:54:55.002Z,75.98
2018-02-22T05:55:54.982Z,75.98
2018-02-22T05:56:54.964Z,75.98
2018-02-22T05:57:54.945Z,76.17
2018-02-22T05:58:54.926Z,76.32
2018-02-22T05:59:54.905Z,76.61
2018-02-22T06:00:54.888Z,76.79
2018-02-22T06:01:54.874Z,76.45
2018-02-22T06:02:54.852Z,76.79
2018-02-22T06:03:54.835Z,76.79
2018-02-22T06:04:54.812Z,77.17
2018-02-22T06:05:54.796Z,76.51
2018-02-22T06:06:54.774Z,76.79
2018-02-22T06:07:54.752Z,77.26
2018-02-22T06:08:54.740Z,76.79
2018-02-22T06:09:54.718Z,76.79
2018-02-22T06:10:54.695Z,76.70
2018-02-22T06:11:54.676Z,76.70
2018-02-22T06:12:54.658Z,77.08
2018-02-22T06:13:54.638Z,77.08
2018-02-22T06:14:54.633Z,77.45
2018-02-22T06:15:54.604Z,77.64
2018-02-22T06:16:54.581Z,77.36
2018-02-22T06:17:54.567Z,77.17
2018-02-22T06:18:54.546Z,76.70
2018-02-22T06:19:54.528Z,76.70
2018-02-22T06:20:54.505Z,76.79
2018-02-22T06:21:54.486Z,77.17
2018-02-22T06:22:54.470Z,77.08
2018-02-22T06:23:54.452Z,77.08
2018-02-22T06:24:54.424Z,77.74
2018-02-22T06:25:54.409Z,78.50
2018-02-22T06:26:54.392Z,77.55
2018-02-22T06:27:54.366Z,77.08
2018-02-22T06:28:54.349Z,77.08
2018-02-22T06:29:54.331Z,77.45
2018-02-22T06:30:54.308Z,79.25
2018-02-22T06:31:54.295Z,79.19
2018-02-22T06:32:54.321Z,78.81
2018-02-22T06:33:54.255Z,77.21
2018-02-22T06:34:54.230Z,77.02
2018-02-22T06:35:54.216Z,76.61
2018-02-22T06:36:54.193Z,76.79
2018-02-22T06:37:54.174Z,77.08
2018-02-22T06:38:54.152Z,77.45
2018-02-22T06:39:54.133Z,77.26
2018-02-22T06:40:54.124Z,77.55
2018-02-22T06:41:54.094Z,78.68
2018-02-22T06:42:54.080Z,78.40
2018-02-22T06:43:54.063Z,77.83
2018-02-22T06:44:54.047Z,77.45
2018-02-22T06:45:54.024Z,77.59
2018-02-22T06:46:53.999Z,77.40
2018-02-22T06:47:53.983Z,77.55
2018-02-22T06:48:53.963Z,77.59
2018-02-22T06:49:53.943Z,79.38
2018-02-22T06:50:53.928Z,79.91
2018-02-22T06:51:53.903Z,77.74
2018-02-22T06:52:53.885Z,77.26
2018-02-22T06:53:53.865Z,77.40
2018-02-22T06:54:53.846Z,77.36
2018-02-22T06:55:53.832Z,77.93
2018-02-22T06:56:53.807Z,77.97
2018-02-22T06:57:53.816Z,77.40
2018-02-22T06:58:53.768Z,77.26
2018-02-22T06:59:53.751Z,77.36
2018-02-22T07:00:53.729Z,77.83
2018-02-22T07:01:53.712Z,77.83
2018-02-22T07:02:53.694Z,77.93
2018-02-22T07:03:53.677Z,78.68
2018-02-22T07:04:53.657Z,78.81
2018-02-22T07:05:53.634Z,77.78
2018-02-22T07:06:53.618Z,77.78
2018-02-22T07:07:53.594Z,79.67
2018-02-22T07:08:53.580Z,79.48
2018-02-22T07:09:53.557Z,78.53
2018-02-22T07:10:53.543Z,78.06
2018-02-22T07:11:53.524Z,78.53
2018-02-22T07:12:53.498Z,78.44
2018-02-22T07:13:53.529Z,79.10
2018-02-22T07:14:53.510Z,78.91
2018-02-22T07:15:53.447Z,78.53
2018-02-22T07:16:53.421Z,77.78
2018-02-22T07:17:53.404Z,78.25
2018-02-22T07:18:53.388Z,79.38
2018-02-22T07:19:53.364Z,80.80
2018-02-22T07:20:53.345Z,79.76
2018-02-22T07:21:53.326Z,78.16
2018-02-22T07:22:53.307Z,78.25
2018-02-22T07:23:53.297Z,78.25
2018-02-22T07:24:53.273Z,78.25
2018-02-22T07:25:53.250Z,78.63
2018-02-22T07:26:53.232Z,78.81
2018-02-22T07:27:53.215Z,78.40
2018-02-22T07:28:53.191Z,78.78
2018-02-22T07:29:53.176Z,80.52
2018-02-22T07:30:53.150Z,79.29
2018-02-22T07:31:53.130Z,78.78
2018-02-22T07:32:53.120Z,78.21
2018-02-22T07:33:53.094Z,78.68
2018-02-22T07:34:53.075Z,78.31
2018-02-22T07:35:53.053Z,78.97
2018-02-22T07:36:53.042Z,79.19
2018-02-22T07:37:53.022Z,79.16
2018-02-22T07:38:52.996Z,79.00
2018-02-22T07:39:52.976Z,79.16
2018-02-22T07:40:52.959Z,79.57
2018-02-22T07:41:52.937Z,80.14
2018-02-22T07:42:52.925Z,80.43
2018-02-22T07:43:52.898Z,79.86
2018-02-22T07:44:52.879Z,79.38
2018-02-22T07:45:52.866Z,79.29
2018-02-22T07:46:52.841Z,79.48
2018-02-22T07:47:52.821Z,80.62
2018-02-22T07:48:52.811Z,81.18
2018-02-22T07:49:52.786Z,79.57
2018-02-22T07:50:52.764Z,79.67
2018-02-22T07:51:52.744Z,79.19
2018-02-22T07:52:52.731Z,79.38
2018-02-22T07:53:52.709Z,79.00
2018-02-22T07:54:52.692Z,79.67
2018-02-22T07:55:52.669Z,79.67
2018-02-22T07:56:52.655Z,79.67
2018-02-22T07:57:52.634Z,79.48
2018-02-22T07:58:52.611Z,79.16
2018-02-22T07:59:52.592Z,80.24
2018-02-22T08:00:52.576Z,80.33
2018-02-22T08:01:52.553Z,79.91
2018-02-22T08:02:52.532Z,79.57
2018-02-22T08:03:52.520Z,80.24
2018-02-22T08:04:52.495Z,79.67
2018-02-22T08:05:52.476Z,80.43
2018-02-22T08:06:52.455Z,80.14
2018-02-22T08:07:52.443Z,79.48
2018-02-22T08:08:52.419Z,79.19
2018-02-22T08:09:52.405Z,79.67
2018-02-22T08:10:52.381Z,80.52
2018-02-22T08:11:52.363Z,80.33
2018-02-22T08:12:52.345Z,79.67
2018-02-22T08:13:52.326Z,79.38
2018-02-22T08:14:52.302Z,79.29
2018-02-22T08:15:52.283Z,79.10
2018-02-22T08:16:52.270Z,79.00
2018-02-22T08:17:52.245Z,78.97
2018-02-22T08:18:52.226Z,79.16
2018-02-22T08:19:52.211Z,79.10
2018-02-22T08:20:52.198Z,79.35
2018-02-22T08:21:52.172Z,80.38
2018-02-22T08:22:52.147Z,81.84
2018-02-22T08:23:52.128Z,80.14
2018-02-22T08:24:52.110Z,79.91
2018-02-22T08:25:52.095Z,80.43
2018-02-22T08:26:52.069Z,79.44
2018-02-22T08:27:52.064Z,81.74
2018-02-22T08:28:52.038Z,80.80
2018-02-22T08:29:52.012Z,79.95
2018-02-22T08:30:51.999Z,80.24
2018-02-22T08:31:51.974Z,80.33
2018-02-22T08:32:51.957Z,79.48
2018-02-22T08:33:51.939Z,79.29
2018-02-22T08:34:51.922Z,79.57
2018-02-22T08:35:51.897Z,79.67
2018-02-22T08:36:51.884Z,79.95
2018-02-22T08:37:51.860Z,79.57
2018-02-22T08:38:51.838Z,79.48
2018-02-22T08:39:51.820Z,79.76
2018-02-22T08:40:51.800Z,79.63
2018-02-22T08:41:51.780Z,80.19
2018-02-22T08:42:51.764Z,79.63
2018-02-22T08:43:51.742Z,80.62
2018-02-22T08:44:51.722Z,80.62
2018-02-22T08:45:51.702Z,80.14
2018-02-22T08:46:51.692Z,80.33
2018-02-22T08:47:51.665Z,80.62
2018-02-22T08:48:51.645Z,80.62
2018-02-22T08:49:51.626Z,80.33
2018-02-22T08:50:51.606Z,79.48
2018-02-22T08:51:51.587Z,79.38
2018-02-22T08:52:51.576Z,79.57
2018-02-22T08:53:51.559Z,79.19
2018-02-22T08:54:51.530Z,79.48
2018-02-22T08:55:51.519Z,79.57
2018-02-22T08:56:51.498Z,79.67
2018-02-22T08:57:51.478Z,79.48
2018-02-22T08:58:51.456Z,79.67
2018-02-22T08:59:51.434Z,79.57
2018-02-22T09:00:51.415Z,79.67
2018-02-22T09:01:51.395Z,79.10
2018-02-22T09:02:51.377Z,79.57
2018-02-22T09:03:51.359Z,79.76
2018-02-22T09:04:51.337Z,79.38
2018-02-22T09:05:51.318Z,79.38
2018-02-22T09:06:51.299Z,79.10
2018-02-22T09:07:51.279Z,79.00
2018-02-22T09:08:51.260Z,79.19
2018-02-22T09:09:51.248Z,79.06
2018-02-22T09:10:51.222Z,79.53
2018-02-22T09:11:51.204Z,79.25
2018-02-22T09:12:51.184Z,79.19
2018-02-22T09:13:51.165Z,79.44
2018-02-22T09:14:51.150Z,79.44
2018-02-22T09:15:51.133Z,79.91
2018-02-22T09:16:51.113Z,79.82
2018-02-22T09:17:51.089Z,79.53
2018-02-22T09:18:51.072Z,79.44
2018-02-22T09:19:51.049Z,79.82
2018-02-22T09:20:51.036Z,80.10
2018-02-22T09:21:51.009Z,80.00
2018-02-22T09:22:50.989Z,80.19
2018-02-22T09:23:50.969Z,79.82
2018-02-22T09:24:50.952Z,79.91
2018-02-22T09:25:50.931Z,80.10
2018-02-22T09:26:50.911Z,80.29
2018-02-22T09:27:50.893Z,79.72
2018-02-22T09:28:50.878Z,79.91
2018-02-22T09:29:50.855Z,79.63
2018-02-22T09:30:50.841Z,79.76
2018-02-22T09:31:50.814Z,80.29
2018-02-22T09:32:50.797Z,80.29
2018-02-22T09:33:50.782Z,79.82
2018-02-22T09:34:50.764Z,79.76
2018-02-22T09:35:50.737Z,80.10
2018-02-22T09:36:50.718Z,80.19
2018-02-22T09:37:50.701Z,79.63
2018-02-22T09:38:50.679Z,79.63
2018-02-22T09:39:50.659Z,79.76
2018-02-22T09:40:50.645Z,79.82
2018-02-22T09:41:50.625Z,80.29
2018-02-22T09:42:50.601Z,80.29
2018-02-22T09:43:50.582Z,80.57
2018-02-22T09:44:50.568Z,80.57
2018-02-22T09:45:50.550Z,80.48
2018-02-22T09:46:50.528Z,80.48
2018-02-22T09:47:50.505Z,80.33
2018-02-22T09:48:50.492Z,80.19
2018-02-22T09:49:50.466Z,80.29
2018-02-22T09:50:50.445Z,80.19
2018-02-22T09:51:50.427Z,80.95
2018-02-22T09:52:50.407Z,80.48
2018-02-22T09:53:50.387Z,80.85
2018-02-22T09:54:50.373Z,80.85
2018-02-22T09:55:50.354Z,80.10
2018-02-22T09:56:50.331Z,80.52
2018-02-22T09:57:50.311Z,80.80
2018-02-22T09:58:50.289Z,80.10
2018-02-22T09:59:50.273Z,80.10
2018-02-22T10:00:50.257Z,80.14
2018-02-22T10:01:50.238Z,80.10
2018-02-22T10:02:50.210Z,80.24
2018-02-22T10:03:50.193Z,80.14
2018-02-22T10:04:50.174Z,80.66
2018-02-22T10:05:50.154Z,80.95
2018-02-22T10:06:50.140Z,80.71
2018-02-22T10:07:50.116Z,81.56
2018-02-22T10:08:50.096Z,80.14
2018-02-22T10:09:50.086Z,80.33
2018-02-22T10:10:50.058Z,80.05
2018-02-22T10:11:50.037Z,80.05
2018-02-22T10:12:50.020Z,80.71
2018-02-22T10:13:49.999Z,80.43
2018-02-22T10:14:49.980Z,79.38
2018-02-22T10:15:49.960Z,79.76
2018-02-22T10:16:49.946Z,79.67
2018-02-22T10:17:49.922Z,79.10
2018-02-22T10:18:49.902Z,79.10
2018-02-22T10:19:49.890Z,79.29
2018-02-22T10:20:49.864Z,78.91
2018-02-22T10:21:49.848Z,79.00
2018-02-22T10:22:49.827Z,80.05
2018-02-22T10:23:49.812Z,79.29
2018-02-22T10:24:49.785Z,79.00
2018-02-22T10:25:49.765Z,79.38
2018-02-22T10:26:49.749Z,79.48
2018-02-22T10:27:49.734Z,79.67
2018-02-22T10:28:49.718Z,79.48
2018-02-22T10:29:49.698Z,80.90
2018-02-22T10:30:49.672Z,79.67
2018-02-22T10:31:49.659Z,78.63
2018-02-22T10:32:49.635Z,78.44
2018-02-22T10:33:49.615Z,78.53
2018-02-22T10:34:49.602Z,78.25
2018-02-22T10:35:49.576Z,78.25
2018-02-22T10:36:49.559Z,78.25
2018-02-22T10:37:49.540Z,78.72
2018-02-22T10:38:49.524Z,79.19
2018-02-22T10:39:49.499Z,78.53
2018-02-22T10:40:49.487Z,80.62
2018-02-22T10:41:49.463Z,79.29
2018-02-22T10:42:49.446Z,78.53
2018-02-22T10:43:49.424Z,78.25
2018-02-22T10:44:49.427Z,79.57
2018-02-22T10:45:49.387Z,79.57
2018-02-22T10:46:49.367Z,78.72
2018-02-22T10:47:49.352Z,78.25
2018-02-22T10:48:49.328Z,78.44
2018-02-22T10:49:49.311Z,78.44
2018-02-22T10:50:49.290Z,78.16
2018-02-22T10:51:49.274Z,78.44
2018-02-22T10:52:49.260Z,77.78
2018-02-22T10:53:49.240Z,77.87
2018-02-22T10:54:49.245Z,77.78
2018-02-22T10:55:49.197Z,77.97
2018-02-22T10:56:49.182Z,78.06
2018-02-22T10:57:49.166Z,77.50
2018-02-22T10:58:49.140Z,77.69
2018-02-22T10:59:49.122Z,77.69
2018-02-22T11:00:49.102Z,78.06
2018-02-22T11:01:49.085Z,77.87
2018-02-22T11:02:49.065Z,77.87
2018-02-22T11:03:49.044Z,77.40
2018-02-22T11:04:49.028Z,77.50
2018-02-22T11:05:49.007Z,77.69
2018-02-22T11:06:48.987Z,77.50
2018-02-22T11:07:48.976Z,77.97
2018-02-22T11:08:48.956Z,77.69
2018-02-22T11:09:48.932Z,77.78
2018-02-22T11:10:48.918Z,77.87
2018-02-22T11:11:48.898Z,77.40
2018-02-22T11:12:48.872Z,77.40
2018-02-22T11:13:48.863Z,77.40
2018-02-22T11:14:48.836Z,77.40
2018-02-22T11:15:48.816Z,77.87
2018-02-22T11:16:48.801Z,77.78
2018-02-22T11:17:48.779Z,77.31
2018-02-22T11:18:48.765Z,77.21
2018-02-22T11:19:48.754Z,76.55
2018-02-22T11:20:48.722Z,76.64
2018-02-22T11:21:48.705Z,77.31
2018-02-22T11:22:48.691Z,76.83
2018-02-22T11:23:48.668Z,77.12
2018-02-22T11:24:48.647Z,77.40
2018-02-22T11:25:48.628Z,77.31
2018-02-22T11:26:48.611Z,77.21
2018-02-22T11:27:48.595Z,77.31
2018-02-22T11:28:48.572Z,76.83
2018-02-22T11:29:48.551Z,77.21
2018-02-22T11:30:48.532Z,76.74
2018-02-22T11:31:48.515Z,76.93
2018-02-22T11:32:48.494Z,76.55
2018-02-22T11:33:48.475Z,76.74
2018-02-22T11:34:48.455Z,76.64
2018-02-22T11:35:48.436Z,76.83
2018-02-22T11:36:48.419Z,76.45
2018-02-22T11:37:48.400Z,76.64
2018-02-22T11:38:48.383Z,77.31
2018-02-22T11:39:48.420Z,77.21
2018-02-22T11:40:48.347Z,77.21
2018-02-22T11:41:48.328Z,77.12
2018-02-22T11:42:48.312Z,76.83
2018-02-22T11:43:48.291Z,77.21
2018-02-22T11:44:48.266Z,77.12
2018-02-22T11:45:48.248Z,76.83
2018-02-22T11:46:48.229Z,76.64
2018-02-22T11:47:48.209Z,77.12
2018-02-22T11:48:48.196Z,77.02
2018-02-22T11:49:48.178Z,76.07
2018-02-22T11:50:48.151Z,76.64
2018-02-22T11:51:48.152Z,76.36
2018-02-22T11:52:48.120Z,76.55
2018-02-22T11:53:48.095Z,76.26
2018-02-22T11:54:48.077Z,75.98
2018-02-22T11:55:48.065Z,75.79
2018-02-22T11:56:48.046Z,76.26
2018-02-22T11:57:48.028Z,76.45
2018-02-22T11:58:48.007Z,76.83
2018-02-22T11:59:47.980Z,76.55
2018-02-22T12:00:47.961Z,76.74
2018-02-22T12:01:47.943Z,76.64
2018-02-22T12:02:47.925Z,76.45
2018-02-22T12:03:47.912Z,76.55
2018-02-22T12:04:47.887Z,76.36
2018-02-22T12:05:47.867Z,76.26
2018-02-22T12:06:47.848Z,76.26
2018-02-22T12:07:47.836Z,76.26
2018-02-22T12:08:47.819Z,76.93
2018-02-22T12:09:47.791Z,76.64
2018-02-22T12:10:47.773Z,76.45
2018-02-22T12:11:47.755Z,76.83
2018-02-22T12:12:47.741Z,76.93
2018-02-22T12:13:47.723Z,76.93
2018-02-22T12:14:47.703Z,76.64
2018-02-22T12:15:47.684Z,76.55
2018-02-22T12:16:47.666Z,76.83
2018-02-22T12:17:47.643Z,76.64
2018-02-22T12:18:47.630Z,76.74
2018-02-22T12:19:47.608Z,76.74
2018-02-22T12:20:47.582Z,76.83
2018-02-22T12:21:47.571Z,76.55
2018-02-22T12:22:47.545Z,76.83
2018-02-22T12:23:47.530Z,76.64
2018-02-22T12:24:47.510Z,76.93
2018-02-22T12:25:47.494Z,76.83
2018-02-22T12:26:47.469Z,76.83
2018-02-22T12:27:47.451Z,76.83
2018-02-22T12:28:47.432Z,76.83
2018-02-22T12:29:47.413Z,76.64
2018-02-22T12:30:47.394Z,76.74
2018-02-22T12:31:47.375Z,76.74
2018-02-22T12:32:47.362Z,76.17
2018-02-22T12:33:47.341Z,76.07
2018-02-22T12:34:47.317Z,76.26
2018-02-22T12:35:47.305Z,76.26
2018-02-22T12:36:47.282Z,76.74
2018-02-22T12:37:47.262Z,76.83
2018-02-22T12:38:47.241Z,76.55
2018-02-22T12:39:47.223Z,76.83
2018-02-22T12:40:47.205Z,76.64
2018-02-22T12:41:47.185Z,76.93
2018-02-22T12:42:47.171Z,77.02
2018-02-22T12:43:47.148Z,76.83
2018-02-22T12:44:47.130Z,76.64
2018-02-22T12:45:47.112Z,76.83
2018-02-22T12:46:47.093Z,76.36
2018-02-22T12:47:47.073Z,76.74
2018-02-22T12:48:47.055Z,77.02
2018-02-22T12:49:47.043Z,76.64
2018-02-22T12:50:47.015Z,76.07
2018-02-22T12:51:46.997Z,76.36